Time;durP1;ratioP1;P1;durP2;ratioP2;P2;SDS_P1;SDS_P2;PMS_P1;PMS_P2;Temp;Humidity;BMP_temperature;BMP_pressure;BME280_temperature;BME280_humidity;BME280_pressure;Samples;Min_cycle;Max_cycle;Signal;HPM_P1;HPM_P2
2022/05/23 00:01:31;;;;;;;15.20;4.80;;;;;;;28.71;61.72;100509.28;5017493;28;70479;-43
2022/05/23 00:04:02;;;;;;;14.00;5.30;;;;;;;28.73;63.13;100509.91;5018206;28;66336;-43
2022/05/23 00:06:34;;;;;;;5.10;4.13;;;;;;;28.81;64.49;100509.66;5017944;28;69883;-43
2022/05/23 00:09:06;;;;;;;12.13;5.45;;;;;;;28.90;64.61;100513.78;5021272;28;65455;-43
2022/05/23 00:11:38;;;;;;;7.80;5.40;;;;;;;28.93;64.63;100521.44;5023020;28;70666;-42
2022/05/23 00:14:10;;;;;;;9.25;5.43;;;;;;;28.98;66.08;100520.78;5023423;28;66307;-40
2022/05/23 00:16:45;;;;;;;11.13;4.82;;;;;;;28.62;66.47;100448.53;5020301;28;69749;-41
2022/05/23 00:19:16;;;;;;;13.82;6.18;;;;;;;29.11;66.62;100519.91;5023108;28;66318;-44
2022/05/23 00:21:47;;;;;;;13.35;5.75;;;;;;;29.10;67.87;100515.56;5021270;28;70637;-40
2022/05/23 00:24:20;;;;;;;19.35;6.97;;;;;;;29.14;67.82;100530.28;5020731;28;67131;-44
2022/05/23 00:26:51;;;;;;;13.80;7.07;;;;;;;29.09;69.44;100532.81;5022323;28;70517;-46
2022/05/23 00:29:23;;;;;;;13.13;7.55;;;;;;;29.08;69.85;100536.56;5022107;28;66379;-43
2022/05/23 00:37:33;;;;;;;7.15;5.05;;;;;;;29.43;65.21;100544.25;5019852;28;69891;-44
2022/05/23 00:40:06;;;;;;;12.10;5.47;;;;;;;29.45;64.68;100536.72;5023166;28;66138;-46
2022/05/23 00:45:29;;;;;;;6.88;5.22;;;;;;;29.59;65.48;100559.94;5021728;28;66231;-44
2022/05/23 00:48:01;;;;;;;;;;;;;;;29.32;66.83;100554.69;5020993;28;70350;-44
2022/05/23 00:50:35;;;;;;;5.00;4.18;;;;;;;29.59;64.72;100549.13;5019777;28;67534;-44
2022/05/23 00:53:09;;;;;;;7.65;4.55;;;;;;;29.43;64.43;100518.03;5017131;28;69300;-44
2022/05/23 00:55:47;;;;;;;6.63;4.57;;;;;;;29.82;63.99;100581.81;5019670;28;65261;-44
2022/05/23 00:58:24;;;;;;;5.57;4.15;;;;;;;29.88;63.62;100584.69;5019439;28;70184;-44
2022/05/23 01:01:00;;;;;;;5.90;4.00;;;;;;;29.81;63.91;100558.53;5019301;28;65550;-44
2022/05/23 01:03:32;;;;;;;8.82;3.65;;;;;;;29.92;64.10;100585.88;5018811;28;70351;-44
2022/05/23 01:06:06;;;;;;;5.63;4.55;;;;;;;29.74;63.62;100552.34;5021559;28;65347;-44
2022/05/23 01:08:41;;;;;;;8.23;3.92;;;;;;;30.01;63.34;100617.03;5018864;28;70654;-44
2022/05/23 01:11:14;;;;;;;4.40;3.63;;;;;;;30.01;63.95;100595.41;5020881;28;66497;-44
2022/05/23 01:13:45;;;;;;;6.60;3.65;;;;;;;29.99;63.66;100587.50;5016957;28;69609;-44
2022/05/23 01:16:16;;;;;;;4.80;4.00;;;;;;;30.05;63.18;100602.00;5000544;28;66507;-44
2022/05/23 01:18:51;;;;;;;5.70;3.67;;;;;;;29.97;63.54;100583.34;4998532;28;70004;-44
2022/05/23 01:21:31;;;;;;;6.60;3.85;;;;;;;30.10;63.35;100604.06;5002359;28;65253;-44
2022/05/23 01:24:31;;;;;;;6.75;3.65;;;;;;;29.99;64.28;100603.72;4999568;28;70520;-44
2022/05/23 01:27:05;;;;;;;4.25;3.42;;;;;;;30.10;63.11;100598.66;5001136;28;66263;-44
2022/05/23 01:29:44;;;;;;;9.43;3.45;;;;;;;29.94;63.01;100567.56;4998416;28;70296;-45
2022/05/23 01:32:16;;;;;;;8.65;3.70;;;;;;;30.16;62.70;100598.56;5013127;28;65303;-44
2022/05/23 01:34:50;;;;;;;7.38;3.30;;;;;;;30.22;62.43;100592.28;5019681;28;70680;-49
2022/05/23 01:37:22;;;;;;;5.47;3.65;;;;;;;30.22;62.88;100597.72;5020491;28;66261;-44
2022/05/23 01:40:17;;;;;;;3.92;3.33;;;;;;;30.24;62.37;100603.72;5020434;28;70709;-44
2022/05/23 01:43:01;;;;;;;4.88;3.10;;;;;;;30.22;62.64;100592.28;5020786;28;65401;-44
2022/05/23 01:45:37;;;;;;;4.30;3.72;;;;;;;29.76;62.74;100517.81;5019465;28;69037;-44
2022/05/23 01:48:37;;;;;;;3.75;3.03;;;;;;;30.28;62.34;100596.84;5021582;28;66090;-44
2022/05/23 01:51:08;;;;;;;4.03;2.93;;;;;;;30.22;62.00;100592.28;5021926;28;69847;-43
2022/05/23 01:53:39;;;;;;;5.78;2.92;;;;;;;30.23;62.21;100591.28;5020878;28;66735;-44
2022/05/23 01:56:11;;;;;;;9.60;3.33;;;;;;;30.34;61.99;100594.28;5018732;28;69374;-43
2022/05/23 02:01:43;;;;;;;8.88;3.70;;;;;;;30.39;62.16;100603.38;5017914;28;70633;-44
2022/05/23 02:04:25;;;;;;;6.30;3.65;;;;;;;30.41;61.77;100595.03;5018750;28;65477;-44
2022/05/23 02:06:58;;;;;;;4.88;3.17;;;;;;;30.36;62.00;100587.59;5016303;28;69283;-44
2022/05/23 02:09:36;;;;;;;3.50;3.20;;;;;;;30.46;61.84;100592.50;5020483;28;65554;-45
2022/05/23 02:12:27;;;;;;;5.20;2.88;;;;;;;30.45;61.80;100596.25;5019994;28;69944;-44
2022/05/23 02:15:02;;;;;;;3.90;2.83;;;;;;;30.48;61.92;100591.22;5005336;28;65395;-45
2022/05/23 02:17:52;;;;;;;3.88;3.08;;;;;;;30.49;61.96;100592.03;4983815;28;70008;-46
2022/05/23 02:20:26;;;;;;;5.15;3.22;;;;;;;30.38;61.50;100573.84;5000897;28;66313;-43
2022/05/23 02:22:57;;;;;;;5.07;2.60;;;;;;;30.56;61.59;100600.09;5006210;28;69895;-43
2022/05/23 02:25:30;;;;;;;3.40;2.88;;;;;;;30.56;61.70;100598.19;5020010;28;66499;-44
2022/05/23 02:28:16;;;;;;;4.03;2.88;;;;;;;30.51;61.34;100584.53;5019934;28;69519;-46
2022/05/23 02:30:48;;;;;;;3.37;2.67;;;;;;;30.59;61.22;100603.19;5019919;28;65297;-45
2022/05/23 02:33:39;;;;;;;3.03;2.73;;;;;;;30.60;61.57;100595.88;5017530;28;70385;-44
2022/05/23 02:36:28;;;;;;;3.20;2.90;;;;;;;30.64;60.94;100589.78;5020239;28;65719;-45
2022/05/23 02:39:01;;;;;;;4.45;2.90;;;;;;;30.67;61.27;100583.09;5019129;28;69428;-44
2022/05/23 02:41:34;;;;;;;3.67;2.83;;;;;;;30.70;60.96;100580.78;5003586;28;66481;-45
2022/05/23 02:44:07;;;;;;;5.22;3.33;;;;;;;30.71;61.31;100574.28;5020205;28;70107;-44
2022/05/23 02:46:38;;;;;;;4.75;3.72;;;;;;;30.71;61.02;100568.06;5018282;28;65281;-44
2022/05/23 02:49:13;;;;;;;4.30;2.80;;;;;;;30.69;60.76;100554.72;5014339;28;70198;-43
2022/05/23 02:51:47;;;;;;;3.97;3.08;;;;;;;30.78;61.21;100567.97;5015136;28;66192;-44
2022/05/23 02:54:19;;;;;;;;;;;;;;;30.44;61.42;100559.41;5012715;28;70139;-44
2022/05/23 02:56:57;;;;;;;4.15;2.65;;;;;;;30.77;60.92;100561.72;5017996;28;66016;-45
2022/05/23 02:59:29;;;;;;;3.20;2.90;;;;;;;30.82;60.47;100550.25;5017386;28;69738;-44
2022/05/23 03:04:59;;;;;;;5.15;3.40;;;;;;;30.85;60.49;100557.94;5018330;28;69176;-44
2022/05/23 03:07:30;;;;;;;4.50;3.30;;;;;;;30.88;60.42;100560.19;5019147;28;66614;-43
2022/05/23 03:10:04;;;;;;;5.00;2.47;;;;;;;30.93;60.93;100554.91;5015613;28;70076;-44
2022/05/23 03:12:36;;;;;;;6.35;3.63;;;;;;;30.96;60.33;100549.03;5018412;28;66481;-45
2022/05/23 03:15:07;;;;;;;3.22;2.45;;;;;;;30.96;60.79;100549.03;5004606;28;69215;-44
2022/05/23 03:17:39;;;;;;;;;;;;;;;30.64;61.72;100554.59;4997838;28;66359;-44
2022/05/23 03:20:11;;;;;;;4.77;3.13;;;;;;;30.98;60.41;100557.75;4999094;28;70679;-44
2022/05/23 03:28:26;;;;;;;3.15;2.85;;;;;;;31.07;60.69;100550.97;5015900;28;66025;-45
2022/05/23 03:30:57;;;;;;;4.07;2.92;;;;;;;31.08;60.15;100541.75;5019157;28;70967;-43
2022/05/23 03:33:28;;;;;;;4.25;2.95;;;;;;;31.10;60.61;100542.38;5018748;28;66660;-44
2022/05/23 03:36:00;;;;;;;3.80;3.28;;;;;;;31.16;60.15;100554.16;5017978;28;70487;-44
2022/05/23 03:38:31;;;;;;;7.03;3.13;;;;;;;31.16;60.04;100549.56;5017958;28;66134;-45
2022/05/23 03:41:07;;;;;;;6.95;2.90;;;;;;;31.16;60.30;100548.75;5017309;28;69287;-46
2022/05/23 03:43:39;;;;;;;4.07;3.17;;;;;;;31.16;60.38;100541.44;5017529;28;66610;-44
2022/05/23 03:46:13;;;;;;;7.07;3.15;;;;;;;31.21;60.13;100545.34;5020265;28;69431;-44
2022/05/23 03:48:44;;;;;;;4.15;3.40;;;;;;;31.28;60.26;100557.72;5014345;28;66430;-44
2022/05/23 03:51:16;;;;;;;7.35;3.60;;;;;;;31.29;60.40;100553.16;5018979;28;69134;-44
2022/05/23 03:53:47;;;;;;;4.47;3.05;;;;;;;31.30;59.94;100552.09;5017911;28;65280;-44
2022/05/23 03:56:18;;;;;;;7.47;3.38;;;;;;;31.34;60.34;100559.53;5018306;28;70273;-43
2022/05/23 03:58:55;;;;;;;6.43;3.17;;;;;;;31.39;59.94;100554.25;5014248;28;66214;-44
2022/05/23 04:01:30;;;;;;;4.03;3.00;;;;;;;31.38;60.30;100549.91;5016992;28;69409;-43
2022/05/23 04:04:16;;;;;;;3.80;3.38;;;;;;;31.44;60.16;100555.47;5017551;28;66186;-44
2022/05/23 04:07:08;;;;;;;4.03;3.13;;;;;;;31.07;59.65;100483.22;5020007;28;70196;-44
2022/05/23 04:09:55;;;;;;;8.80;3.10;;;;;;;31.49;60.02;100537.44;5016803;28;65331;-44
2022/05/23 04:12:29;;;;;;;4.72;3.22;;;;;;;31.51;59.78;100540.75;5017488;28;69524;-44
2022/05/23 04:15:00;;;;;;;5.03;3.53;;;;;;;31.51;60.11;100535.34;5004616;28;66041;-44
2022/05/23 04:17:32;;;;;;;5.50;3.07;;;;;;;31.55;59.88;100522.94;4996686;28;70222;-44
2022/05/23 04:20:05;;;;;;;5.20;3.22;;;;;;;31.53;59.78;100511.50;4998247;28;66461;-44
2022/05/23 04:22:46;;;;;;;6.63;3.17;;;;;;;31.51;60.00;100501.94;5013880;28;70016;-43
2022/05/23 04:25:21;;;;;;;4.95;2.83;;;;;;;31.52;59.81;100499.03;4998529;28;66448;-44
2022/05/23 04:27:52;;;;;;;4.95;3.42;;;;;;;31.63;59.78;100513.66;4997387;28;70420;-44
2022/05/23 04:30:23;;;;;;;3.63;2.87;;;;;;;31.67;60.02;100514.81;4998341;28;66187;-44
2022/05/23 04:35:44;;;;;;;4.13;2.70;;;;;;;31.67;59.52;100495.03;5016946;28;66061;-44
2022/05/23 04:38:18;;;;;;;3.50;2.80;;;;;;;31.81;59.60;100507.28;5016791;28;70051;-44
2022/05/23 04:40:50;;;;;;;5.10;2.78;;;;;;;31.75;59.87;100491.97;5017661;28;65692;-45
2022/05/23 04:43:22;;;;;;;7.93;2.80;;;;;;;31.84;59.52;100509.53;5017250;28;70809;-45
2022/05/23 04:45:53;;;;;;;5.28;2.65;;;;;;;31.85;59.45;100519.34;5018902;28;65899;-44
2022/05/23 04:52:05;;;;;;;3.53;2.65;;;;;;;31.89;60.11;100506.13;5016168;28;65617;-44
2022/05/23 04:54:42;;;;;;;5.55;2.92;;;;;;;31.69;59.58;100471.22;5018630;28;69889;-44
2022/05/23 04:57:15;;;;;;;4.32;3.00;;;;;;;31.95;59.78;100497.06;5018767;28;65578;-44
2022/05/23 04:59:46;;;;;;;;;;;;;;;31.63;60.42;100499.28;5020615;28;69730;-44
2022/05/23 05:02:23;;;;;;;4.95;2.65;;;;;;;31.91;60.07;100477.72;5019577;28;66307;-44
2022/05/23 05:04:58;;;;;;;3.47;2.35;;;;;;;31.95;59.82;100476.16;5018573;28;69456;-45
2022/05/23 05:07:30;;;;;;;3.75;2.65;;;;;;;31.88;59.92;100463.78;5021909;28;66118;-44
2022/05/23 05:10:03;;;;;;;4.88;3.13;;;;;;;31.99;59.96;100485.50;5020967;28;69527;-44
2022/05/23 05:12:34;;;;;;;;;;;;;;;31.68;60.85;100480.41;5021327;28;65503;-44
2022/05/23 05:15:06;;;;;;;4.85;2.38;;;;;;;31.94;60.04;100474.53;5017894;28;70480;-44
2022/05/23 05:17:38;;;;;;;6.57;3.58;;;;;;;31.72;59.93;100424.63;5000935;28;65795;-44
2022/05/23 05:20:09;;;;;;;4.85;2.63;;;;;;;31.93;59.95;100456.63;5001484;28;70908;-44
2022/05/23 05:23:01;;;;;;;3.92;2.47;;;;;;;32.06;60.09;100466.38;4987531;28;65717;-44
2022/05/23 05:26:07;;;;;;;5.38;2.85;;;;;;;31.98;59.49;100450.47;5017006;28;70205;-44
2022/05/23 05:28:41;;;;;;;7.25;3.20;;;;;;;32.03;60.25;100461.44;5021180;28;66866;-44
2022/05/23 05:31:23;;;;;;;4.70;2.87;;;;;;;31.99;60.19;100452.94;5020908;28;70273;-44
2022/05/23 05:34:02;;;;;;;4.03;2.53;;;;;;;32.08;59.84;100452.59;5020197;28;65314;-44
2022/05/23 05:36:41;;;;;;;4.72;2.63;;;;;;;32.11;59.84;100476.53;5018157;28;70156;-45
2022/05/23 05:39:14;;;;;;;3.60;2.63;;;;;;;31.32;60.16;100327.75;5016882;28;66235;-43
2022/05/23 05:41:54;;;;;;;3.80;2.95;;;;;;;31.95;59.80;100413.78;5017822;28;70410;-44
2022/05/23 05:44:33;;;;;;;5.18;3.00;;;;;;;31.82;59.73;100392.34;5034679;28;66197;-45
2022/05/23 05:47:09;;;;;;;4.57;2.70;;;;;;;31.41;60.20;100320.13;5032293;28;70657;-44
2022/05/23 05:50:08;;;;;;;5.30;2.28;;;;;;;32.22;60.08;100438.50;5016407;28;66120;-44
2022/05/23 05:53:10;;;;;;;3.85;2.60;;;;;;;32.08;59.65;100410.00;4998585;28;69787;-44
2022/05/23 05:55:42;;;;;;;3.72;2.65;;;;;;;32.24;59.95;100427.41;5000278;28;66576;-44
2022/05/23 05:58:15;;;;;;;3.22;2.53;;;;;;;32.22;59.81;100410.53;4998849;28;69663;-44
2022/05/23 06:00:57;;;;;;;5.93;2.53;;;;;;;32.27;59.55;100425.03;5015517;28;66055;-44
2022/05/23 06:03:35;;;;;;;7.65;3.17;;;;;;;32.36;59.49;100417.34;5000044;28;69781;-44
2022/05/23 06:12:04;;;;;;;4.18;2.90;;;;;;;32.33;59.86;100387.97;5005508;28;66718;-44
2022/05/23 06:14:38;;;;;;;4.53;2.55;;;;;;;32.47;59.72;100392.06;5009104;28;69981;-44
2022/05/23 06:17:11;;;;;;;3.88;2.33;;;;;;;32.52;59.29;100398.69;5000272;28;66468;-44
2022/05/23 06:19:48;;;;;;;4.25;2.28;;;;;;;32.53;59.64;100394.88;4998900;28;69261;-45
2022/05/23 06:22:23;;;;;;;4.75;2.45;;;;;;;32.40;59.44;100364.22;5002001;28;65725;-45
2022/05/23 06:25:10;;;;;;;3.97;2.28;;;;;;;32.22;59.36;100329.13;5019858;28;70303;-44
2022/05/23 06:27:41;;;;;;;3.65;2.17;;;;;;;32.59;59.28;100397.44;5019789;28;65704;-43
2022/05/23 06:30:17;;;;;;;3.97;2.05;;;;;;;32.62;59.51;100404.28;5019264;28;69599;-44
2022/05/23 06:33:00;;;;;;;8.13;2.50;;;;;;;32.56;59.56;100389.78;5019805;28;65690;-45
2022/05/23 06:35:43;;;;;;;4.18;2.45;;;;;;;32.60;59.45;100395.56;5020044;28;70475;-44
2022/05/23 06:38:16;;;;;;;4.53;2.20;;;;;;;32.60;59.46;100401.81;5019792;28;65656;-44
2022/05/23 06:40:53;;;;;;;6.55;2.75;;;;;;;32.55;59.30;100392.75;5019381;28;70009;-43
2022/05/23 06:43:30;;;;;;;4.55;2.53;;;;;;;32.63;59.19;100400.50;5021980;28;65804;-45
2022/05/23 06:46:20;;;;;;;6.32;2.63;;;;;;;32.66;59.40;100400.03;5019927;28;70339;-44
2022/05/23 06:49:20;;;;;;;3.58;1.98;;;;;;;32.68;59.40;100387.84;4999393;28;66136;-44
2022/05/23 06:52:09;;;;;;;4.22;2.25;;;;;;;32.73;58.88;100381.66;5020167;28;70365;-45
2022/05/23 06:54:55;;;;;;;3.35;2.47;;;;;;;32.75;59.04;100395.81;5019145;28;66116;-43
2022/05/23 06:57:43;;;;;;;3.50;2.20;;;;;;;32.76;59.15;100383.88;5019821;28;69960;-45
2022/05/23 07:00:17;;;;;;;7.70;2.10;;;;;;;32.76;59.05;100381.16;5020650;28;66206;-45
2022/05/23 07:02:59;;;;;;;3.28;2.45;;;;;;;32.78;59.18;100381.75;5019385;28;70568;-45
2022/05/23 07:14:16;;;;;;;3.73;2.23;;;;;;;32.76;60.02;100400.19;5017974;28;70021;-44
2022/05/23 07:16:49;;;;;;;4.90;2.53;;;;;;;32.82;60.08;100403.81;5016711;28;66105;-45
2022/05/23 07:19:30;;;;;;;2.95;2.33;;;;;;;32.75;60.07;100392.28;5016841;28;69691;-45
2022/05/23 07:22:06;;;;;;;5.13;2.40;;;;;;;32.84;59.85;100386.19;5019317;28;65659;-45
2022/05/23 07:24:44;;;;;;;6.38;2.75;;;;;;;32.85;59.76;100382.44;5008203;28;70866;-43
2022/05/23 07:27:28;;;;;;;2.85;1.85;;;;;;;32.88;59.82;100386.56;5018873;28;66014;-44
2022/05/23 07:30:00;;;;;;;5.60;2.17;;;;;;;32.87;59.88;100376.72;5016490;28;69924;-45
2022/05/23 07:32:35;;;;;;;5.00;2.75;;;;;;;32.89;59.77;100366.44;5020118;28;65732;-44
2022/05/23 07:35:07;;;;;;;3.38;2.85;;;;;;;32.89;59.84;100367.28;5018447;28;70236;-44
2022/05/23 07:37:39;;;;;;;4.10;2.58;;;;;;;32.89;59.82;100361.84;5017740;28;66693;-43
2022/05/23 07:40:11;;;;;;;5.27;3.10;;;;;;;32.90;59.75;100362.66;5019323;28;70777;-43
2022/05/23 07:42:54;;;;;;;4.95;2.55;;;;;;;32.92;59.65;100360.53;5015474;28;66208;-43
2022/05/23 07:45:26;;;;;;;8.10;2.47;;;;;;;32.86;59.92;100346.03;5018111;28;69424;-45
2022/05/23 07:47:59;;;;;;;5.85;2.90;;;;;;;32.90;59.76;100349.94;5018596;28;66672;-46
2022/05/23 07:50:37;;;;;;;8.70;3.40;;;;;;;32.90;62.14;100355.34;5019269;28;70215;-43
2022/05/23 08:01:54;;;;;;;3.65;2.83;;;;;;;32.92;60.99;100355.09;4997422;28;70094;-45
2022/05/23 08:04:27;;;;;;;8.07;3.40;;;;;;;32.90;60.89;100351.78;4999462;28;66481;-44
2022/05/23 08:07:02;;;;;;;7.13;3.78;;;;;;;32.86;60.66;100354.19;4998134;28;70031;-44
2022/05/23 08:09:34;;;;;;;3.85;3.28;;;;;;;32.82;60.64;100341.34;4998763;28;66625;-44
2022/05/23 08:12:11;;;;;;;7.53;3.55;;;;;;;32.53;60.71;100291.72;4997195;28;69619;-44
2022/05/23 08:14:42;;;;;;;8.93;4.00;;;;;;;32.96;60.67;100349.97;5018954;28;66148;-44
2022/05/23 08:17:21;;;;;;;5.78;4.03;;;;;;;32.93;60.50;100349.44;5008582;28;69389;-43
2022/05/23 08:19:54;;;;;;;3.97;3.58;;;;;;;32.92;60.62;100349.66;5013604;28;66014;-45
2022/05/23 08:22:31;;;;;;;3.95;3.03;;;;;;;32.95;60.50;100349.16;5005990;28;70423;-45
2022/05/23 08:25:19;;;;;;;5.60;3.45;;;;;;;32.95;60.64;100346.44;4988124;28;66506;-44
2022/05/23 08:27:57;;;;;;;5.28;3.75;;;;;;;32.91;60.44;100340.69;5001517;28;70526;-45
2022/05/23 08:30:29;;;;;;;8.40;3.33;;;;;;;32.94;60.65;100348.34;5017718;28;65749;-44
2022/05/23 08:33:21;;;;;;;5.30;3.47;;;;;;;32.94;60.32;100347.53;5017933;28;68767;-45
2022/05/23 08:35:58;;;;;;;3.65;3.28;;;;;;;32.96;60.33;100342.69;5022329;28;65231;-44
2022/05/23 08:38:29;;;;;;;5.95;3.47;;;;;;;32.94;60.23;100342.91;5020887;28;69949;-45
2022/05/23 08:41:37;;;;;;;5.90;3.85;;;;;;;32.41;60.43;100268.13;5011847;28;66307;-45
2022/05/23 08:44:45;;;;;;;5.32;3.63;;;;;;;32.91;60.14;100335.25;5008091;28;69906;-44
2022/05/23 08:47:41;;;;;;;3.60;3.30;;;;;;;32.46;60.16;100267.44;5014831;28;66235;-44
2022/05/23 08:50:20;;;;;;;6.60;3.85;;;;;;;32.93;60.27;100343.16;5011137;28;70241;-43
2022/05/23 08:53:00;;;;;;;4.63;3.55;;;;;;;32.91;60.04;100335.25;5018014;28;65089;-43
2022/05/23 08:55:50;;;;;;;6.68;3.78;;;;;;;32.89;59.79;100334.69;5007161;28;70098;-45
2022/05/23 08:58:54;;;;;;;4.05;3.53;;;;;;;32.81;60.24;100337.81;5007502;28;66453;-44
2022/05/23 09:01:44;;;;;;;3.60;3.30;;;;;;;32.92;59.87;100355.09;5012033;28;70132;-44
2022/05/23 09:04:47;;;;;;;4.85;3.25;;;;;;;32.82;60.01;100344.91;5012389;28;66721;-44
2022/05/23 09:07:44;;;;;;;4.22;3.35;;;;;;;32.82;59.97;100349.47;5005765;28;69425;-45
2022/05/23 09:10:46;;;;;;;6.43;3.90;;;;;;;32.81;59.81;100354.09;5000191;28;65405;-45
2022/05/23 09:13:18;;;;;;;4.40;3.78;;;;;;;32.81;59.62;100337.81;5002253;28;69969;-43
2022/05/23 09:15:52;;;;;;;7.78;3.78;;;;;;;32.47;59.47;100280.75;5012159;28;66702;-44
2022/05/23 09:18:27;;;;;;;6.00;3.33;;;;;;;32.93;59.32;100363.00;5022630;28;69987;-46
2022/05/23 09:21:02;;;;;;;7.25;4.13;;;;;;;32.48;59.25;100285.13;5020099;28;66734;-43
2022/05/23 09:23:38;;;;;;;8.00;4.28;;;;;;;32.89;58.97;100350.97;5018373;28;70259;-43
2022/05/23 09:26:17;;;;;;;4.72;3.65;;;;;;;32.90;58.95;100358.06;5001173;28;66057;-43
2022/05/23 09:28:51;;;;;;;4.85;3.85;;;;;;;32.91;59.30;100359.72;5020466;28;70636;-44
2022/05/23 09:31:25;;;;;;;10.73;4.90;;;;;;;32.91;59.12;100359.72;5019886;28;66292;-44
2022/05/23 09:33:56;;;;;;;5.78;4.15;;;;;;;32.88;59.24;100353.94;5021498;28;70258;-45
2022/05/23 09:36:37;;;;;;;4.57;4.18;;;;;;;32.75;58.88;100338.78;5019984;28;66028;-45
2022/05/23 09:39:11;;;;;;;4.55;4.00;;;;;;;32.90;58.91;100368.94;5022000;28;70231;-45
2022/05/23 09:47:56;;;;;;;5.53;3.90;;;;;;;32.42;58.87;100291.50;5014317;28;65656;-44
2022/05/23 09:50:31;;;;;;;5.38;4.57;;;;;;;32.87;59.04;100368.59;5007968;28;69896;-44
2022/05/23 09:53:44;;;;;;;5.55;3.83;;;;;;;32.75;58.78;100355.09;5006731;28;65221;-44
2022/05/23 09:56:41;;;;;;;6.25;4.93;;;;;;;32.77;59.05;100363.81;5015773;28;71283;-46
2022/05/23 09:59:38;;;;;;;7.35;4.25;;;;;;;32.71;58.86;100370.25;5001208;28;66508;-43
2022/05/23 10:02:16;;;;;;;4.72;4.15;;;;;;;32.83;58.70;100372.88;5041877;28;69893;-45
2022/05/23 10:04:49;;;;;;;6.80;4.15;;;;;;;32.78;58.73;100365.47;5019993;28;66455;-44
2022/05/23 10:07:37;;;;;;;8.00;4.90;;;;;;;32.82;58.80;100393.78;5020704;28;69516;-44
2022/05/23 10:10:20;;;;;;;6.85;4.40;;;;;;;32.28;60.26;100330.88;5019103;28;66060;-47
2022/05/23 10:13:25;;;;;;;9.43;6.03;;;;;;;32.46;61.80;100401.28;5010815;28;70407;-45
2022/05/23 10:16:17;;;;;;;7.22;5.85;;;;;;;32.24;63.21;100408.41;5017669;28;66292;-43
2022/05/23 10:19:08;;;;;;;8.27;6.00;;;;;;;32.05;64.69;100397.72;5018043;28;69281;-43
2022/05/23 10:21:46;;;;;;;6.15;5.57;;;;;;;31.61;64.88;100328.69;5019448;28;66523;-44
2022/05/23 10:24:17;;;;;;;9.13;5.97;;;;;;;32.06;64.93;100409.41;5017337;28;70354;-44
2022/05/23 10:27:00;;;;;;;12.43;6.22;;;;;;;31.93;65.34;100402.38;5017913;28;66304;-44
2022/05/23 10:29:34;;;;;;;10.27;6.20;;;;;;;31.96;65.73;100418.16;5016194;28;69572;-44
2022/05/23 10:32:15;;;;;;;8.80;5.97;;;;;;;31.93;65.80;100426.78;5017954;28;66142;-43
2022/05/23 10:34:55;;;;;;;5.88;5.38;;;;;;;31.47;66.28;100354.41;5018827;28;70014;-44
2022/05/23 10:37:32;;;;;;;6.43;5.18;;;;;;;31.74;66.38;100398.13;5030397;28;65543;-43
2022/05/23 10:43:07;;;;;;;8.65;6.00;;;;;;;31.81;66.49;100431.34;5018885;28;66014;-45
2022/05/23 10:45:37;;;;;;;;;;;;;;;31.57;67.58;100431.38;5016740;28;70270;-43
2022/05/23 10:48:21;;;;;;;10.00;6.00;;;;;;;31.31;66.76;100350.47;5020437;28;65628;-45
2022/05/23 10:51:11;;;;;;;10.02;5.93;;;;;;;31.80;66.76;100430.53;5021369;28;70199;-46
2022/05/23 10:54:16;;;;;;;8.05;5.60;;;;;;;31.70;66.31;100440.31;5019669;28;65401;-46
2022/05/23 10:57:05;;;;;;;9.40;6.57;;;;;;;31.75;66.55;100443.97;5018688;28;70078;-44
2022/05/23 11:00:02;;;;;;;6.90;5.13;;;;;;;31.39;66.29;100371.84;5019433;28;66543;-45
2022/05/23 11:02:33;;;;;;;7.18;4.93;;;;;;;31.97;64.88;100446.94;5018479;28;69605;-45
2022/05/23 11:05:09;;;;;;;8.65;5.43;;;;;;;32.09;64.71;100448.78;5017357;28;65803;-46
2022/05/23 11:08:17;;;;;;;8.43;5.22;;;;;;;32.05;64.96;100457.41;5016934;28;69815;-44
2022/05/23 11:10:54;;;;;;;7.47;5.18;;;;;;;32.05;63.90;100441.13;5017838;28;66031;-44
2022/05/23 11:13:49;;;;;;;5.78;5.25;;;;;;;32.19;63.88;100459.88;5016930;28;70901;-44
2022/05/23 11:16:40;;;;;;;9.23;6.30;;;;;;;31.95;64.28;100431.94;5015453;28;65535;-47
2022/05/23 11:19:43;;;;;;;8.45;6.80;;;;;;;32.01;64.83;100464.41;5014855;28;69443;-46
2022/05/23 11:22:23;;;;;;;13.02;6.38;;;;;;;31.87;65.61;100471.06;5016626;28;66519;-44
2022/05/23 11:25:21;;;;;;;7.55;6.40;;;;;;;31.75;66.32;100481.13;5015136;28;69463;-45
2022/05/23 11:34:28;;;;;;;11.90;6.65;;;;;;;31.61;66.76;100485.94;5018797;28;66784;-44
2022/05/23 11:40:02;;;;;;;8.63;6.70;;;;;;;31.60;66.44;100482.41;5020958;28;65422;-45
2022/05/23 11:43:03;;;;;;;7.85;7.15;;;;;;;31.25;66.56;100438.16;5015893;28;70330;-45
2022/05/23 11:48:49;;;;;;;9.10;6.72;;;;;;;30.92;66.79;100412.41;5017116;28;70081;-45
2022/05/23 11:51:26;;;;;;;8.30;7.40;;;;;;;31.50;66.49;100495.72;5016895;28;65719;-43
2022/05/23 11:54:12;;;;;;;7.95;7.07;;;;;;;31.20;66.90;100473.25;5019360;28;70236;-43
2022/05/23 11:57:10;;;;;;;9.10;7.87;;;;;;;31.43;66.93;100505.84;5018528;28;66312;-44
2022/05/23 11:59:41;;;;;;;7.90;7.18;;;;;;;31.42;67.08;100504.19;5017653;28;69616;-44
2022/05/23 12:02:14;;;;;;;8.52;7.68;;;;;;;31.42;67.14;100525.88;5018554;28;66360;-45
2022/05/23 12:04:45;;;;;;;8.87;7.20;;;;;;;31.38;67.00;100519.28;5021809;28;68937;-44
2022/05/23 12:58:30;;;;;;;35.25;12.98;;;;;;;30.86;69.15;100564.97;5037617;27;43774;-37
2022/05/23 13:01:07;;;;;;;31.25;13.40;;;;;;;30.84;68.39;100562.53;5042196;28;70096;-36
2022/05/23 13:03:53;;;;;;;27.65;13.80;;;;;;;30.82;68.61;100564.63;5047323;28;66166;-37
2022/05/23 13:06:31;;;;;;;24.30;13.48;;;;;;;30.82;68.29;100561.91;5045211;28;69928;-36
2022/05/23 13:09:18;;;;;;;29.48;13.70;;;;;;;30.80;68.76;100574.84;5050314;28;65545;-35
2022/05/23 13:12:06;;;;;;;26.73;13.27;;;;;;;30.81;68.67;100578.38;5045612;28;70497;-36
2022/05/23 13:14:54;;;;;;;24.52;14.30;;;;;;;30.55;68.53;100533.47;5040057;28;65358;-36
2022/05/23 13:17:38;;;;;;;24.75;14.63;;;;;;;30.89;68.42;100580.78;5034744;28;69765;-36
2022/05/23 13:23:18;;;;;;;23.52;14.88;;;;;;;30.66;68.00;100544.38;5040623;28;69919;-37
2022/05/23 13:25:49;;;;;;;22.17;15.70;;;;;;;30.92;68.39;100585.72;5034492;28;65462;-36
2022/05/23 13:28:20;;;;;;;22.20;15.15;;;;;;;30.96;68.08;100586.94;5042807;28;70999;-37
2022/05/23 13:30:56;;;;;;;23.55;15.52;;;;;;;30.95;67.85;100590.69;5049534;28;65534;-39
2022/05/23 13:33:46;;;;;;;30.23;15.93;;;;;;;30.94;67.83;100586.34;5038486;28;70854;-37
2022/05/23 13:36:17;;;;;;;27.55;15.50;;;;;;;30.97;68.86;100587.78;5041941;28;66107;-37
2022/05/23 13:39:03;;;;;;;27.77;15.98;;;;;;;30.78;66.61;100574.19;5031542;28;69913;-40
2022/05/23 13:41:35;;;;;;;31.25;15.30;;;;;;;30.82;65.15;100591.69;5042009;28;66032;-39
2022/05/23 13:44:05;;;;;;;22.73;14.00;;;;;;;30.78;63.79;100595.03;5053940;28;70355;-37
2022/05/23 13:46:41;;;;;;;24.17;13.45;;;;;;;30.68;61.89;100585.59;5034882;28;65011;-37
2022/05/23 13:49:27;;;;;;;15.80;12.40;;;;;;;30.67;63.26;100602.91;5037077;28;70030;-38
2022/05/23 13:52:03;;;;;;;23.15;12.80;;;;;;;30.57;62.19;100591.75;5039877;28;66031;-37
2022/05/23 13:54:41;;;;;;;13.68;11.23;;;;;;;30.47;62.36;100588.72;5037129;28;70386;-40
2022/05/23 13:57:31;;;;;;;19.02;11.43;;;;;;;30.37;61.54;100600.09;5045273;28;66296;-38
2022/05/23 14:00:14;;;;;;;25.85;12.18;;;;;;;30.35;60.77;100604.88;5024321;28;69711;-38
2022/05/23 14:02:57;;;;;;;18.42;11.68;;;;;;;30.33;59.81;100619.69;5031698;28;65511;-38
2022/05/23 14:05:31;;;;;;;19.60;11.43;;;;;;;30.32;59.19;100609.91;5015567;28;70868;-40
2022/05/23 14:08:04;;;;;;;15.77;11.35;;;;;;;30.23;58.14;100615.63;5031967;28;66119;-37
2022/05/23 14:10:41;;;;;;;22.08;10.55;;;;;;;29.94;57.38;100573.81;5034361;28;69340;-40
2022/05/23 14:13:16;;;;;;;21.45;11.52;;;;;;;30.14;57.30;100616.91;5036841;28;65972;-39
2022/05/23 14:15:54;;;;;;;27.30;10.13;;;;;;;30.14;56.39;100624.19;5031413;28;69973;-39
2022/05/23 14:18:33;;;;;;;17.77;9.45;;;;;;;29.93;56.13;100595.66;5035355;28;65447;-38
2022/05/23 14:21:04;;;;;;;15.18;9.88;;;;;;;30.07;55.22;100624.25;5050569;28;69483;-37
2022/05/23 14:23:35;;;;;;;19.35;10.52;;;;;;;30.06;55.33;100619.88;5030724;28;64459;-39